Time;durP1;ratioP1;P1;durP2;ratioP2;P2;SDS_P1;SDS_P2;PMS_P1;PMS_P2;Temp;Humidity;BMP_temperature;BMP_pressure;BME280_temperature;BME280_humidity;BME280_pressure;Samples;Min_cycle;Max_cycle;Signal;HPM_P1;HPM_P2
2021/12/08 00:01:23;;;;;;;4.97;1.83;;;21.40;99.90;;;;;;5008108;28;20787;-84
2021/12/08 00:03:51;;;;;;;7.47;2.00;;;21.40;99.90;;;;;;5007829;28;20443;-85
2021/12/08 00:06:18;;;;;;;6.32;2.00;;;21.40;99.90;;;;;;5007969;28;20397;-85
2021/12/08 00:08:59;;;;;;;5.57;1.73;;;21.50;99.90;;;;;;5007841;28;20387;-85
2021/12/08 00:14:13;;;;;;;7.47;1.90;;;21.80;99.90;;;;;;5007631;28;20382;-85
2021/12/08 00:16:40;;;;;;;7.25;1.80;;;21.80;99.90;;;;;;5008116;28;20383;-85
2021/12/08 00:19:07;;;;;;;8.87;2.00;;;21.80;99.90;;;;;;5007636;28;20379;-85
2021/12/08 00:21:34;;;;;;;5.20;1.97;;;21.70;99.90;;;;;;5007536;28;20879;-84
2021/12/08 00:24:01;;;;;;;5.28;1.90;;;21.70;99.90;;;;;;4989871;28;20387;-85
2021/12/08 00:26:28;;;;;;;8.35;1.98;;;21.80;99.90;;;;;;5007503;28;20451;-84
2021/12/08 00:28:55;;;;;;;6.77;1.90;;;22.00;99.90;;;;;;5007323;28;20489;-84
2021/12/08 00:31:22;;;;;;;8.43;2.30;;;22.00;99.50;;;;;;5007393;28;20407;-84
2021/12/08 00:33:49;;;;;;;6.97;1.93;;;21.70;99.60;;;;;;5007382;28;20379;-84
2021/12/08 00:36:18;;;;;;;6.97;1.95;;;21.50;99.90;;;;;;5007290;28;20917;-84
2021/12/08 00:38:46;;;;;;;5.75;1.98;;;21.60;99.80;;;;;;5007225;28;20387;-85
2021/12/08 00:41:13;;;;;;;5.72;1.90;;;21.70;99.50;;;;;;5007204;28;20449;-85
2021/12/08 00:43:40;;;;;;;5.77;2.00;;;21.70;99.90;;;;;;5007235;28;20875;-85
2021/12/08 00:46:08;;;;;;;8.30;2.03;;;21.70;99.90;;;;;;5007060;28;20898;-85
2021/12/08 00:48:35;;;;;;;5.70;1.80;;;21.80;99.30;;;;;;5006872;28;20399;-84
2021/12/08 00:51:03;;;;;;;6.15;1.77;;;21.60;99.90;;;;;;5006777;28;20406;-85
2021/12/08 00:53:30;;;;;;;7.20;1.90;;;21.60;99.90;;;;;;5007009;28;20411;-84
2021/12/08 00:55:58;;;;;;;7.18;2.10;;;21.90;99.50;;;;;;5007164;28;20410;-84
2021/12/08 00:58:25;;;;;;;6.63;2.00;;;21.70;99.30;;;;;;4989337;28;20383;-84
2021/12/08 01:00:52;;;;;;;8.07;2.33;;;21.80;99.30;;;;;;5007135;28;20379;-84
2021/12/08 01:03:20;;;;;;;7.93;2.17;;;21.90;99.20;;;;;;4989285;28;20387;-84
2021/12/08 01:05:54;;;;;;;9.10;2.30;;;22.00;98.60;;;;;;5006823;28;20822;-84
2021/12/08 01:08:24;;;;;;;8.73;2.20;;;21.90;98.80;;;;;;5007035;28;20407;-84
2021/12/08 01:10:54;;;;;;;7.95;2.17;;;22.00;99.00;;;;;;5006815;28;20407;-85
2021/12/08 01:13:23;;;;;;;7.13;1.92;;;22.40;99.50;;;;;;5007150;28;20867;-84
2021/12/08 01:15:53;;;;;;;9.00;2.00;;;22.80;97.60;;;;;;5006876;28;20399;-85
2021/12/08 01:18:20;;;;;;;9.55;2.10;;;22.80;97.90;;;;;;5007092;28;20979;-85
2021/12/08 01:20:50;;;;;;;8.95;2.10;;;23.10;97.00;;;;;;5008581;28;20432;-85
2021/12/08 01:23:18;;;;;;;6.53;1.80;;;23.30;95.80;;;;;;5008762;28;20387;-85
2021/12/08 01:25:46;;;;;;;5.82;2.00;;;23.30;95.80;;;;;;4990399;28;20387;-85
2021/12/08 01:28:13;;;;;;;8.23;2.15;;;23.20;95.30;;;;;;5008508;28;20855;-84
2021/12/08 01:30:40;;;;;;;7.43;2.55;;;23.10;95.20;;;;;;5006847;28;20435;-84
2021/12/08 01:33:07;;;;;;;10.95;2.60;;;22.90;95.30;;;;;;5006679;28;20779;-84
2021/12/08 01:35:34;;;;;;;7.55;2.10;;;22.60;96.10;;;;;;5006887;28;20384;-84
2021/12/08 01:38:01;;;;;;;10.18;2.10;;;22.20;97.50;;;;;;5006871;28;20506;-85
2021/12/08 01:40:28;;;;;;;12.95;2.00;;;22.10;98.80;;;;;;5006639;28;20383;-84
2021/12/08 01:42:58;;;;;;;5.13;1.95;;;22.00;99.20;;;;;;5006795;28;20371;-84
2021/12/08 01:48:16;;;;;;;7.30;1.83;;;22.00;99.90;;;;;;5006491;28;20386;-85
2021/12/08 01:50:49;;;;;;;6.68;2.17;;;22.00;99.90;;;;;;5006284;28;20879;-84
2021/12/08 01:53:16;;;;;;;7.43;1.98;;;22.10;99.80;;;;;;4988880;28;20476;-84
2021/12/08 01:55:44;;;;;;;5.97;1.80;;;21.90;99.90;;;;;;5006385;28;20379;-85
2021/12/08 01:58:14;;;;;;;6.07;1.90;;;21.90;99.90;;;;;;5007064;28;20375;-84
2021/12/08 02:00:48;;;;;;;6.32;1.80;;;21.90;99.90;;;;;;5006707;28;20759;-84
2021/12/08 02:03:18;;;;;;;8.97;2.10;;;21.70;99.90;;;;;;5006738;28;20485;-84
2021/12/08 02:05:45;;;;;;;9.80;2.22;;;21.80;99.90;;;;;;5006639;28;20946;-84
2021/12/08 02:08:12;;;;;;;8.95;1.90;;;21.70;99.90;;;;;;5006581;28;20402;-84
2021/12/08 02:10:41;;;;;;;10.13;2.23;;;21.70;99.90;;;;;;5006117;28;20950;-84
2021/12/08 02:13:09;;;;;;;16.35;2.55;;;21.70;99.90;;;;;;5006519;28;20466;-84
2021/12/08 02:15:37;;;;;;;9.25;2.00;;;21.70;99.90;;;;;;5006567;28;20423;-84
2021/12/08 02:18:08;;;;;;;7.35;1.90;;;21.70;99.90;;;;;;5009152;28;20378;-84
2021/12/08 02:20:35;;;;;;;8.43;2.13;;;21.60;99.90;;;;;;5009777;28;20477;-84
2021/12/08 02:23:03;;;;;;;6.17;1.70;;;21.60;99.90;;;;;;5009709;28;20389;-84
2021/12/08 02:25:30;;;;;;;5.97;1.70;;;21.40;99.90;;;;;;5009802;28;20411;-84
2021/12/08 02:28:00;;;;;;;5.70;1.75;;;21.30;99.90;;;;;;5009724;28;20430;-85
2021/12/08 02:30:37;;;;;;;4.73;1.80;;;21.20;99.90;;;;;;4991956;28;20394;-84
2021/12/08 02:47:11;;;;;;;6.15;1.60;;;20.80;99.90;;;;;;5009914;28;20370;-84
2021/12/08 02:49:38;;;;;;;6.67;1.43;;;20.60;99.90;;;;;;5008978;28;20403;-86
2021/12/08 02:52:11;;;;;;;7.45;1.90;;;20.50;99.90;;;;;;5009389;28;20461;-85
2021/12/08 02:54:45;;;;;;;7.57;1.88;;;20.40;99.90;;;;;;5009594;28;20414;-85
2021/12/08 02:57:13;;;;;;;6.28;1.80;;;20.30;99.90;;;;;;5009412;28;20379;-84
2021/12/08 02:59:41;;;;;;;6.57;1.80;;;20.30;99.90;;;;;;5009264;28;20482;-84
2021/12/08 03:02:08;;;;;;;4.75;1.63;;;20.30;99.90;;;;;;5009110;28;20437;-84
2021/12/08 03:04:36;;;;;;;10.38;1.98;;;20.20;99.90;;;;;;5009223;28;20490;-84
2021/12/08 03:07:04;;;;;;;10.95;2.00;;;20.20;99.90;;;;;;5009496;28;20391;-85
2021/12/08 03:09:31;;;;;;;12.25;2.15;;;20.20;99.90;;;;;;5008836;28;20386;-85
2021/12/08 03:12:00;;;;;;;17.17;2.30;;;20.10;99.90;;;;;;5009004;28;20476;-85
2021/12/08 03:14:29;;;;;;;11.88;2.00;;;20.20;99.90;;;;;;5008970;28;20411;-84
2021/12/08 03:16:59;;;;;;;8.48;2.10;;;20.20;99.90;;;;;;5008877;28;20390;-84
2021/12/08 03:19:26;;;;;;;7.32;1.90;;;20.30;99.90;;;;;;5008820;28;20378;-84
2021/12/08 03:21:55;;;;;;;8.60;1.98;;;20.20;99.90;;;;;;5008608;28;20371;-85
2021/12/08 03:24:28;;;;;;;8.18;2.08;;;20.20;99.90;;;;;;5008553;28;20387;-84
2021/12/08 03:27:08;;;;;;;10.38;2.00;;;20.30;99.90;;;;;;4990931;28;20779;-85
2021/12/08 03:32:35;;;;;;;8.70;2.00;;;20.40;99.90;;;;;;5008410;28;20870;-84
2021/12/08 03:35:04;;;;;;;8.02;2.40;;;20.30;99.90;;;;;;4990803;28;20379;-84
2021/12/08 03:37:34;;;;;;;10.23;3.08;;;20.20;99.90;;;;;;5008338;28;20448;-84
2021/12/08 03:40:08;;;;;;;10.05;2.28;;;20.10;99.90;;;;;;5008323;28;20371;-83
2021/12/08 03:42:37;;;;;;;25.60;4.65;;;20.00;99.90;;;;;;5008309;28;20402;-84
2021/12/08 03:45:12;;;;;;;16.80;3.58;;;19.90;99.90;;;;;;5008211;28;20731;-84
2021/12/08 03:47:43;;;;;;;13.45;3.10;;;19.90;99.90;;;;;;5008158;28;20386;-84
2021/12/08 03:50:14;;;;;;;13.63;2.83;;;19.90;99.90;;;;;;5008016;28;20787;-84
2021/12/08 03:52:42;;;;;;;9.63;2.58;;;19.90;99.90;;;;;;5008417;28;20384;-84
2021/12/08 03:55:13;;;;;;;11.60;2.40;;;19.80;99.90;;;;;;5008137;28;20391;-83
2021/12/08 03:57:40;;;;;;;16.08;3.00;;;19.80;99.90;;;;;;5008152;28;20367;-84
2021/12/08 04:00:14;;;;;;;12.77;2.63;;;19.70;99.90;;;;;;5008062;28;20437;-86
2021/12/08 04:02:41;;;;;;;14.57;2.67;;;19.70;99.90;;;;;;5019987;28;20392;-81
2021/12/08 04:05:10;;;;;;;13.77;3.40;;;19.70;99.90;;;;;;5014518;28;20382;-82
2021/12/08 04:07:43;;;;;;;13.50;2.78;;;19.70;99.90;;;;;;5021708;28;20391;-82
2021/12/08 04:10:17;;;;;;;10.05;2.30;;;19.60;99.90;;;;;;5023412;28;20509;-83
2021/12/08 04:12:49;;;;;;;12.88;2.60;;;19.50;99.90;;;;;;5027602;28;20386;-83
2021/12/08 04:15:20;;;;;;;12.75;2.50;;;19.40;99.90;;;;;;5027281;28;20388;-84
2021/12/08 04:17:51;;;;;;;12.68;2.55;;;19.30;99.90;;;;;;5027431;28;20381;-83
2021/12/08 04:20:27;;;;;;;12.10;2.70;;;19.30;99.90;;;;;;5027443;28;20378;-82
2021/12/08 04:22:57;;;;;;;9.20;2.60;;;19.20;99.90;;;;;;5019978;28;20484;-82
2021/12/08 04:25:34;;;;;;;13.32;2.72;;;19.10;99.90;;;;;;5007862;28;20387;-83
2021/12/08 04:28:06;;;;;;;11.95;2.60;;;19.00;99.90;;;;;;5007550;28;20368;-82
2021/12/08 04:30:46;;;;;;;9.85;2.60;;;18.90;99.90;;;;;;5018647;28;20393;-82
2021/12/08 04:33:13;;;;;;;12.33;2.80;;;18.80;99.90;;;;;;5012295;28;20853;-83
2021/12/08 04:35:42;;;;;;;12.52;3.00;;;18.70;99.90;;;;;;5008694;28;20527;-82
2021/12/08 04:38:14;;;;;;;13.90;3.13;;;18.60;99.90;;;;;;5025500;28;20404;-82
2021/12/08 04:43:46;;;;;;;12.97;2.80;;;18.50;99.90;;;;;;5007179;28;20417;-82
2021/12/08 04:46:59;;;;;;;10.60;2.60;;;18.40;99.90;;;;;;4991456;28;20400;-82
2021/12/08 05:05:22;;;;;;;12.13;2.35;;;18.30;99.90;;;;;;5007214;28;20383;-87
2021/12/08 05:08:00;;;;;;;14.98;2.78;;;18.20;99.90;;;;;;5025286;28;20446;-84
2021/12/08 05:10:35;;;;;;;11.38;2.67;;;18.20;99.90;;;;;;5010995;28;20496;-80
2021/12/08 05:13:06;;;;;;;16.02;2.72;;;17.20;99.90;;;;;;5010906;28;20393;-80
2021/12/08 05:15:40;;;;;;;14.90;3.28;;;18.00;99.90;;;;;;5013648;28;20373;-82
2021/12/08 05:18:33;;;;;;;15.27;3.10;;;18.00;99.90;;;;;;5026700;28;20470;-81
2021/12/08 05:21:26;;;;;;;10.93;3.17;;;17.90;99.90;;;;;;5027265;28;20369;-84
2021/12/08 05:24:09;;;;;;;10.88;3.03;;;17.80;99.90;;;;;;5024954;28;20405;-86
2021/12/08 05:26:44;;;;;;;12.70;3.90;;;17.50;99.90;;;;;;5008535;28;20427;-80
2021/12/08 05:29:35;;;;;;;15.32;4.70;;;17.30;99.90;;;;;;5006920;28;20379;-83
2021/12/08 05:32:04;;;;;;;16.48;6.18;;;17.00;99.90;;;;;;5007316;28;20407;-85
2021/12/08 05:34:32;;;;;;;16.30;6.80;;;16.90;99.90;;;;;;5006752;28;20950;-84
2021/12/08 05:36:59;;;;;;;22.88;9.18;;;16.80;99.90;;;;;;5006901;28;20398;-85
2021/12/08 05:39:29;;;;;;;20.13;9.18;;;16.80;99.90;;;;;;5007563;28;20379;-83
2021/12/08 05:42:04;;;;;;;17.67;10.55;;;16.80;99.90;;;;;;5005779;28;20414;-81
2021/12/08 05:44:31;;;;;;;26.75;18.90;;;16.80;99.90;;;;;;5007302;28;20477;-85
2021/12/08 05:47:01;;;;;;;31.25;22.35;;;16.70;99.90;;;;;;5005579;28;20402;-87
2021/12/08 05:49:28;;;;;;;19.83;14.80;;;16.70;99.90;;;;;;5011458;28;20397;-84
2021/12/08 05:51:56;;;;;;;20.15;14.32;;;16.60;99.90;;;;;;5006772;28;20415;-81
2021/12/08 05:54:30;;;;;;;18.92;13.73;;;16.60;99.90;;;;;;5010339;28;20378;-85
2021/12/08 05:57:01;;;;;;;22.02;15.80;;;16.60;99.90;;;;;;5022214;28;20452;-82
2021/12/08 05:59:28;;;;;;;25.77;20.77;;;16.60;99.90;;;;;;5016326;28;20383;-82
2021/12/08 06:02:10;;;;;;;21.40;16.73;;;16.60;99.90;;;;;;5010063;28;20860;-82
2021/12/08 06:04:38;;;;;;;23.42;17.90;;;16.60;99.90;;;;;;5009621;28;20878;-81
2021/12/08 06:07:07;;;;;;;21.60;15.57;;;16.50;99.90;;;;;;5010197;28;20398;-80
2021/12/08 06:09:36;;;;;;;18.13;13.18;;;16.50;99.90;;;;;;5010186;28;20387;-81
2021/12/08 06:12:06;;;;;;;20.92;13.07;;;16.60;99.90;;;;;;5023517;28;20423;-82
2021/12/08 06:14:34;;;;;;;17.10;12.50;;;16.60;99.90;;;;;;5029877;28;20409;-81
2021/12/08 06:17:18;;;;;;;21.77;14.80;;;16.50;99.90;;;;;;5013470;28;20387;-81
2021/12/08 06:19:47;;;;;;;18.80;14.13;;;16.50;99.90;;;;;;5010190;28;20414;-82
2021/12/08 06:22:17;;;;;;;22.90;16.60;;;16.50;99.90;;;;;;5009642;28;20420;-81
2021/12/08 06:24:45;;;;;;;22.30;17.58;;;16.40;99.90;;;;;;5010100;28;20709;-81
2021/12/08 06:27:12;;;;;;;23.60;16.40;;;16.40;99.90;;;;;;5009184;28;20383;-81
2021/12/08 06:29:40;;;;;;;21.52;15.60;;;16.50;99.90;;;;;;5009764;28;20927;-81
2021/12/08 06:32:10;;;;;;;20.83;14.63;;;16.60;99.90;;;;;;5009930;28;20783;-82
2021/12/08 06:34:39;;;;;;;21.65;13.95;;;16.60;99.90;;;;;;5010469;28;20445;-84
2021/12/08 06:37:19;;;;;;;22.88;15.02;;;16.40;99.90;;;;;;5016168;28;20391;-77
2021/12/08 06:40:10;;;;;;;24.10;16.90;;;16.30;99.90;;;;;;5019273;28;20394;-82
2021/12/08 06:42:39;;;;;;;22.88;16.70;;;16.30;99.90;;;;;;5024537;28;20402;-80
2021/12/08 06:45:11;;;;;;;27.83;19.27;;;16.30;99.90;;;;;;5011421;28;20391;-80
2021/12/08 06:47:39;;;;;;;23.90;17.55;;;16.30;99.90;;;;;;5014860;28;20422;-80
2021/12/08 06:50:14;;;;;;;25.52;17.75;;;16.30;99.90;;;;;;5008912;28;20402;-81
2021/12/08 06:52:41;;;;;;;25.52;18.90;;;16.40;99.90;;;;;;5009287;28;20886;-80
2021/12/08 06:55:19;;;;;;;28.13;19.35;;;16.50;99.90;;;;;;5021561;28;20385;-80
2021/12/08 06:57:56;;;;;;;28.85;18.85;;;16.50;99.90;;;;;;5029155;28;20494;-78
2021/12/08 07:00:50;;;;;;;24.58;17.60;;;16.50;99.90;;;;;;5028646;28;20428;-80
2021/12/08 07:06:29;;;;;;;22.42;16.70;;;16.40;99.90;;;;;;5025704;28;20483;-80
2021/12/08 07:08:58;;;;;;;26.13;17.70;;;16.50;99.90;;;;;;5015146;28;20415;-79
2021/12/08 07:11:27;;;;;;;24.58;17.98;;;16.50;99.90;;;;;;5028363;28;20955;-76
2021/12/08 07:13:56;;;;;;;22.30;17.48;;;16.50;99.90;;;;;;4995111;28;20847;-78
2021/12/08 07:16:27;;;;;;;24.60;17.73;;;16.50;99.90;;;;;;5008279;28;20438;-76
2021/12/08 07:19:10;;;;;;;30.65;21.30;;;16.40;99.90;;;;;;4991271;28;20418;-79
2021/12/08 07:21:42;;;;;;;27.70;20.42;;;16.30;99.90;;;;;;5008753;28;20379;-78
2021/12/08 07:24:17;;;;;;;27.13;20.00;;;16.30;99.90;;;;;;5008850;28;20389;-77
2021/12/08 07:26:49;;;;;;;20.75;16.50;;;16.30;99.90;;;;;;5025454;28;20395;-78
2021/12/08 07:29:22;;;;;;;25.95;18.65;;;16.20;99.90;;;;;;5008285;28;20398;-80
2021/12/08 07:31:58;;;;;;;25.75;19.25;;;16.20;99.90;;;;;;5008204;28;20411;-78
2021/12/08 07:34:26;;;;;;;33.55;22.63;;;16.20;99.90;;;;;;5027553;28;20401;-77
2021/12/08 07:37:01;;;;;;;29.90;21.60;;;16.30;99.90;;;;;;5021933;28;20416;-79
2021/12/08 07:39:33;;;;;;;28.08;21.02;;;16.20;99.90;;;;;;5024825;28;20381;-78
2021/12/08 07:42:11;;;;;;;27.67;19.77;;;16.30;99.90;;;;;;5027623;28;20413;-79
2021/12/08 07:44:38;;;;;;;27.75;18.75;;;16.20;99.90;;;;;;5027098;28;20747;-79
2021/12/08 07:47:11;;;;;;;21.95;17.10;;;16.20;99.90;;;;;;5023798;28;20381;-81
2021/12/08 07:49:46;;;;;;;23.98;18.30;;;16.20;99.90;;;;;;5018427;28;20485;-81
2021/12/08 07:52:25;;;;;;;20.05;14.77;;;16.20;99.90;;;;;;5028395;28;20467;-79
2021/12/08 07:54:54;;;;;;;21.65;17.05;;;16.10;99.90;;;;;;5028164;28;20467;-79
2021/12/08 07:57:26;;;;;;;24.73;18.50;;;16.20;99.90;;;;;;5027001;28;20398;-81
2021/12/08 07:59:58;;;;;;;24.10;18.25;;;16.30;99.90;;;;;;5028722;28;20389;-81
2021/12/08 08:02:26;;;;;;;22.92;17.40;;;16.30;99.90;;;;;;5028152;28;20385;-82
2021/12/08 08:04:55;;;;;;;23.35;17.73;;;16.30;99.90;;;;;;5021963;28;20799;-80
2021/12/08 08:07:23;;;;;;;18.65;15.18;;;16.30;99.90;;;;;;5001283;28;20814;-79
2021/12/08 08:09:59;;;;;;;19.77;15.02;;;16.30;99.90;;;;;;5025232;28;20381;-79
2021/12/08 08:12:29;;;;;;;21.35;16.00;;;16.40;99.90;;;;;;5034276;28;20415;-79
2021/12/08 08:15:00;;;;;;;22.10;15.95;;;16.40;99.90;;;;;;5025395;28;20455;-79
2021/12/08 08:17:36;;;;;;;21.85;17.10;;;16.40;99.90;;;;;;4999636;28;20444;-77
2021/12/08 08:20:23;;;;;;;26.88;19.85;;;16.30;99.90;;;;;;5014040;28;20387;-81
2021/12/08 08:22:50;;;;;;;25.45;18.63;;;16.30;99.90;;;;;;5008451;28;20398;-80
2021/12/08 08:25:21;;;;;;;35.20;23.63;;;16.30;99.90;;;;;;5006128;28;20445;-80
2021/12/08 08:27:49;;;;;;;37.15;26.73;;;16.30;99.90;;;;;;5007625;28;20407;-81
2021/12/08 08:30:20;;;;;;;32.63;21.23;;;16.30;99.90;;;;;;5007380;28;20391;-79
2021/12/08 08:32:50;;;;;;;28.98;20.70;;;16.20;99.90;;;;;;5007194;28;20407;-79
2021/12/08 08:35:31;;;;;;;38.92;30.27;;;16.10;99.90;;;;;;5009789;28;20375;-80
2021/12/08 08:38:01;;;;;;;26.55;18.17;;;16.10;99.90;;;;;;5012334;28;20798;-79
2021/12/08 08:40:32;;;;;;;32.80;21.65;;;16.10;99.90;;;;;;5007841;28;20890;-77
2021/12/08 08:43:02;;;;;;;35.73;23.60;;;16.20;99.90;;;;;;5006490;28;20401;-82
2021/12/08 08:45:34;;;;;;;36.47;21.55;;;16.10;99.90;;;;;;5013504;28;20390;-79
2021/12/08 08:48:11;;;;;;;26.63;18.95;;;16.10;99.90;;;;;;5006014;28;20410;-81
2021/12/08 08:50:47;;;;;;;23.13;14.43;;;16.20;99.90;;;;;;4988681;28;20413;-81
2021/12/08 08:53:15;;;;;;;20.67;12.40;;;16.10;99.90;;;;;;5006869;28;20399;-79
2021/12/08 08:55:53;;;;;;;17.45;11.05;;;16.10;99.90;;;;;;4990246;28;20393;-84
2021/12/08 08:58:23;;;;;;;16.63;10.60;;;16.10;99.90;;;;;;5007257;28;20394;-84
2021/12/08 09:00:57;;;;;;;20.17;12.77;;;16.00;99.90;;;;;;5007090;28;20402;-81
2021/12/08 09:03:27;;;;;;;23.63;13.88;;;16.00;99.90;;;;;;5006918;28;20399;-79
2021/12/08 09:06:06;;;;;;;22.10;13.23;;;16.00;99.90;;;;;;5007033;28;20371;-82
2021/12/08 09:08:35;;;;;;;15.13;9.13;;;16.00;99.90;;;;;;4987689;28;20443;-84
2021/12/08 09:11:32;;;;;;;16.40;9.47;;;16.00;99.90;;;;;;5005085;28;20427;-79
2021/12/08 09:14:09;;;;;;;16.73;10.27;;;16.00;99.90;;;;;;5005798;28;20394;-82
2021/12/08 09:16:42;;;;;;;17.02;9.60;;;16.00;99.90;;;;;;5008449;28;20439;-82
2021/12/08 09:19:25;;;;;;;16.08;10.10;;;16.00;99.90;;;;;;5006221;28;20870;-84
2021/12/08 09:22:08;;;;;;;14.32;9.10;;;16.10;99.90;;;;;;5006490;28;20394;-83
2021/12/08 09:24:47;;;;;;;20.93;9.90;;;16.10;99.90;;;;;;5005891;28;20883;-82
2021/12/08 09:27:19;;;;;;;14.70;8.85;;;16.10;99.90;;;;;;5007312;28;20387;-83
2021/12/08 09:29:56;;;;;;;16.15;9.35;;;16.00;99.90;;;;;;5009628;28;20936;-81
2021/12/08 09:32:34;;;;;;;17.25;10.30;;;16.10;99.90;;;;;;5010135;28;20403;-83
2021/12/08 09:35:34;;;;;;;18.40;10.20;;;16.00;99.90;;;;;;5010260;28;20379;-82
2021/12/08 09:38:10;;;;;;;18.05;9.60;;;16.10;99.90;;;;;;4991484;28;20486;-83
2021/12/08 09:40:43;;;;;;;15.27;9.07;;;16.00;99.90;;;;;;5010788;28;20402;-82
2021/12/08 09:43:19;;;;;;;14.02;8.80;;;16.10;99.90;;;;;;5010864;28;20907;-83
2021/12/08 09:46:07;;;;;;;13.50;7.87;;;16.10;99.90;;;;;;5010752;28;20790;-82
2021/12/08 09:48:37;;;;;;;13.20;8.00;;;16.10;99.90;;;;;;5010225;28;20854;-81
2021/12/08 09:51:04;;;;;;;14.27;8.63;;;16.10;99.90;;;;;;5010417;28;20407;-81
2021/12/08 09:53:34;;;;;;;18.45;9.45;;;16.20;99.90;;;;;;5009822;28;20802;-81
2021/12/08 09:56:02;;;;;;;17.42;10.07;;;16.20;99.90;;;;;;5014162;28;20481;-83
2021/12/08 09:58:29;;;;;;;15.07;9.57;;;16.20;99.90;;;;;;5021642;28;20434;-83
2021/12/08 10:00:59;;;;;;;14.60;10.30;;;16.20;99.90;;;;;;5009934;28;20894;-81
2021/12/08 10:03:27;;;;;;;19.25;10.88;;;16.20;99.90;;;;;;5010281;28;20414;-83
2021/12/08 10:05:55;;;;;;;18.38;10.30;;;16.20;99.90;;;;;;5010339;28;20469;-81
2021/12/08 10:08:22;;;;;;;16.38;10.20;;;16.20;99.90;;;;;;5010268;28;20389;-80
2021/12/08 10:10:49;;;;;;;18.35;11.07;;;16.20;99.90;;;;;;5009632;28;20481;-82
2021/12/08 10:13:17;;;;;;;17.52;10.48;;;16.30;99.90;;;;;;5009464;28;20485;-83
2021/12/08 10:15:44;;;;;;;13.95;9.20;;;16.30;99.90;;;;;;5009663;28;20385;-81
2021/12/08 10:18:12;;;;;;;16.20;9.48;;;16.30;99.90;;;;;;5010499;28;20462;-81
2021/12/08 10:20:48;;;;;;;14.02;9.60;;;16.40;99.90;;;;;;5014981;28;21184;-83
2021/12/08 10:23:17;;;;;;;19.02;11.35;;;16.40;99.90;;;;;;5019670;28;20741;-82
2021/12/08 10:25:55;;;;;;;19.93;13.17;;;16.30;99.90;;;;;;5010281;28;20430;-82
2021/12/08 10:28:28;;;;;;;19.30;11.70;;;16.30;99.90;;;;;;5009672;28;21138;-83
2021/12/08 10:31:14;;;;;;;18.63;11.57;;;16.20;99.90;;;;;;5009503;28;20399;-82
2021/12/08 10:34:03;;;;;;;19.70;12.05;;;16.30;99.90;;;;;;5009688;28;20774;-81
2021/12/08 10:39:08;;;;;;;15.13;11.10;;;16.20;99.90;;;;;;5010600;28;20486;-82
2021/12/08 10:41:49;;;;;;;17.35;11.10;;;16.30;99.90;;;;;;5010007;28;20454;-82
2021/12/08 10:44:22;;;;;;;16.38;10.80;;;16.30;99.90;;;;;;5009024;28;20442;-82
2021/12/08 10:46:55;;;;;;;13.45;9.57;;;16.20;99.90;;;;;;5014389;28;20944;-83
2021/12/08 10:54:53;;;;;;;17.23;11.65;;;16.30;99.90;;;;;;5009659;28;21001;-82
2021/12/08 10:57:29;;;;;;;15.60;11.23;;;16.30;99.90;;;;;;5001272;28;20954;-82
2021/12/08 11:00:18;;;;;;;15.38;10.48;;;16.40;99.90;;;;;;5007552;28;20383;-82
2021/12/08 11:02:51;;;;;;;15.23;9.68;;;16.40;99.90;;;;;;5008707;28;20403;-82
2021/12/08 11:05:29;;;;;;;16.90;10.77;;;16.50;99.90;;;;;;5008619;28;20398;-81
2021/12/08 11:08:12;;;;;;;16.05;10.52;;;16.40;99.90;;;;;;5009218;28;20426;-81
2021/12/08 11:10:44;;;;;;;13.13;9.90;;;16.30;99.90;;;;;;5009136;28;20801;-82
2021/12/08 11:13:13;;;;;;;16.25;9.90;;;16.30;99.90;;;;;;5009210;28;20501;-83
2021/12/08 11:15:41;;;;;;;15.98;9.75;;;16.30;99.90;;;;;;5009227;28;20375;-83
2021/12/08 11:18:19;;;;;;;12.75;9.35;;;16.40;99.90;;;;;;5008055;28;20410;-81
2021/12/08 11:20:59;;;;;;;17.30;10.80;;;16.30;99.90;;;;;;5008328;28;20406;-82
2021/12/08 11:26:26;;;;;;;14.38;9.73;;;16.30;99.90;;;;;;5010629;28;20897;-81
2021/12/08 11:28:59;;;;;;;14.77;10.20;;;17.10;99.90;;;;;;5006875;28;20731;-81
2021/12/08 11:31:36;;;;;;;14.85;11.27;;;16.40;99.90;;;;;;5006496;28;20427;-82
2021/12/08 11:34:06;;;;;;;17.67;11.13;;;16.40;99.90;;;;;;5008647;28;20378;-81
2021/12/08 11:36:38;;;;;;;13.35;10.57;;;16.40;99.90;;;;;;5009485;28;20390;-81
2021/12/08 11:39:27;;;;;;;13.73;10.63;;;16.40;99.90;;;;;;5022232;28;20394;-82
2021/12/08 11:41:59;;;;;;;16.33;10.90;;;16.50;99.90;;;;;;5008203;28;20743;-82
2021/12/08 11:44:30;;;;;;;13.87;10.20;;;16.50;99.90;;;;;;5008312;28;20379;-82
2021/12/08 11:47:09;;;;;;;15.90;10.52;;;16.40;99.90;;;;;;5007661;28;20383;-82
2021/12/08 11:49:56;;;;;;;13.77;10.60;;;16.40;99.90;;;;;;5006884;28;20411;-82
2021/12/08 11:52:29;;;;;;;13.68;9.90;;;16.40;99.90;;;;;;5017866;28;20415;-81
2021/12/08 11:55:15;;;;;;;17.55;10.25;;;16.50;99.90;;;;;;5016471;28;20383;-81
2021/12/08 11:57:46;;;;;;;16.73;9.90;;;16.40;99.90;;;;;;5007697;28;20395;-81
2021/12/08 12:00:23;;;;;;;11.73;8.75;;;16.50;99.90;;;;;;4998657;28;20399;-81
2021/12/08 12:03:03;;;;;;;11.40;8.55;;;16.60;99.90;;;;;;5007551;28;20729;-80
2021/12/08 12:05:38;;;;;;;13.43;8.10;;;16.60;99.90;;;;;;5007556;28;20463;-82
2021/12/08 12:08:09;;;;;;;11.98;8.85;;;16.70;99.90;;;;;;5007784;28;20430;-82
2021/12/08 12:10:39;;;;;;;14.05;8.27;;;16.70;99.90;;;;;;5007148;28;20411;-81
2021/12/08 12:13:11;;;;;;;12.18;8.10;;;16.60;99.90;;;;;;5022068;28;20412;-80
2021/12/08 12:15:44;;;;;;;9.45;6.78;;;16.60;99.90;;;;;;5012362;28;20398;-80
2021/12/08 12:18:12;;;;;;;13.30;7.40;;;16.60;99.90;;;;;;5026580;28;20421;-81
2021/12/08 12:20:50;;;;;;;11.48;7.95;;;16.60;99.90;;;;;;5027171;28;20426;-80
2021/12/08 12:23:45;;;;;;;9.75;7.68;;;16.60;99.90;;;;;;5017300;28;20473;-81
2021/12/08 12:26:40;;;;;;;13.05;8.20;;;16.50;99.90;;;;;;5008616;28;20407;-81
2021/12/08 12:29:24;;;;;;;12.60;7.80;;;16.50;99.90;;;;;;5025904;28;20386;-80
2021/12/08 12:32:17;;;;;;;10.20;7.63;;;16.50;99.90;;;;;;5019831;28;20570;-81
2021/12/08 12:34:44;;;;;;;16.45;8.40;;;16.40;99.90;;;;;;5013509;28;20449;-80
2021/12/08 12:37:17;;;;;;;12.52;8.98;;;16.40;99.90;;;;;;5013743;28;20964;-82
2021/12/08 12:39:49;;;;;;;13.57;8.32;;;16.40;99.90;;;;;;5008230;28;20396;-81
2021/12/08 12:42:18;;;;;;;12.03;8.73;;;16.40;99.90;;;;;;5007564;28;20402;-82
2021/12/08 12:45:07;;;;;;;11.80;8.32;;;16.30;99.90;;;;;;5013280;28;20888;-80
2021/12/08 12:47:34;;;;;;;12.60;9.10;;;16.30;99.90;;;;;;5026911;28;20955;-80
2021/12/08 12:50:04;;;;;;;12.43;8.80;;;16.30;99.90;;;;;;5026948;28;20738;-81
2021/12/08 12:52:43;;;;;;;11.55;9.00;;;16.20;99.90;;;;;;5026820;28;20404;-81
2021/12/08 12:55:17;;;;;;;10.55;8.50;;;16.10;99.90;;;;;;5013025;28;20387;-80
2021/12/08 12:58:05;;;;;;;11.95;8.32;;;16.20;99.90;;;;;;5006921;28;20474;-80
2021/12/08 13:00:39;;;;;;;11.73;8.18;;;16.10;99.90;;;;;;5012050;28;20421;-78
2021/12/08 13:03:07;;;;;;;15.73;9.40;;;16.20;99.90;;;;;;5009013;28;20406;-81
2021/12/08 13:05:53;;;;;;;13.82;9.35;;;16.20;99.90;;;;;;5019318;28;20402;-81
2021/12/08 13:08:42;;;;;;;12.63;8.63;;;16.10;99.90;;;;;;5015210;28;20386;-80
2021/12/08 13:11:40;;;;;;;15.23;9.65;;;16.10;99.90;;;;;;5005567;28;20420;-81
2021/12/08 13:14:21;;;;;;;20.13;11.67;;;16.00;99.90;;;;;;5006796;28;20480;-81
2021/12/08 13:17:12;;;;;;;20.27;12.75;;;16.00;99.90;;;;;;5006815;28;20385;-81
2021/12/08 13:19:57;;;;;;;17.98;11.52;;;16.10;99.90;;;;;;5007088;28;20409;-82
2021/12/08 13:22:50;;;;;;;13.27;9.02;;;16.10;99.90;;;;;;5008334;28;20887;-81
2021/12/08 13:25:24;;;;;;;10.63;8.10;;;16.20;99.90;;;;;;5005410;28;20430;-82
2021/12/08 13:28:07;;;;;;;12.85;8.55;;;16.30;99.90;;;;;;5006431;28;20709;-81
2021/12/08 13:30:34;;;;;;;15.10;9.10;;;16.40;99.90;;;;;;5006347;28;20420;-81
2021/12/08 13:33:08;;;;;;;13.57;8.80;;;16.40;99.90;;;;;;5006186;28;20395;-80
2021/12/08 13:35:38;;;;;;;13.57;9.27;;;16.30;99.90;;;;;;5022785;28;20406;-79
2021/12/08 13:38:05;;;;;;;15.88;8.75;;;16.30;99.90;;;;;;5006894;28;20437;-78
2021/12/08 13:40:53;;;;;;;10.93;7.68;;;16.20;99.90;;;;;;5007161;28;20810;-79
2021/12/08 13:43:40;;;;;;;14.03;8.33;;;16.20;99.90;;;;;;5006411;28;20394;-78
2021/12/08 13:46:09;;;;;;;14.67;8.20;;;16.20;99.90;;;;;;4988068;28;20436;-79
2021/12/08 13:48:57;;;;;;;13.27;7.97;;;16.10;99.90;;;;;;5006455;28;20410;-79
2021/12/08 13:51:24;;;;;;;13.88;7.90;;;16.10;99.90;;;;;;5006398;28;20495;-80
2021/12/08 13:54:26;;;;;;;10.45;7.80;;;16.00;99.90;;;;;;5011675;28;20395;-80
2021/12/08 13:56:54;;;;;;;13.40;6.97;;;16.00;99.90;;;;;;5004185;28;20462;-78
2021/12/08 13:59:58;;;;;;;11.50;6.88;;;16.00;99.90;;;;;;5006495;28;20402;-79
2021/12/08 14:02:33;;;;;;;14.07;6.70;;;16.00;99.90;;;;;;5007487;28;20478;-80